Bo Phut, Thailand

11:59 PM ICT on August 24, 2016 (GMT +0700)
Samui | | Change Station

Elev 66 ft 9.55 °N, 100.06 °E | Updated 1 hour ago

Partly Cloudy
Partly Cloudy
84 °F
Feels Like 94 °F
N
0
Wind Variable Wind from North

Today
High -- | Low -- °F
--% Chance of Precip.
Yesterday
High -- | Low -- °F
Precip. -- in
Pressure 29.74 in
Visibility 5.6 miles
Clouds Few 2000 ft
Heat Index 94 °F
Dew Point 77 °F
Humidity 79%
Rainfall 0.00 in
Snow Depth Not available.
6:11 AM 6:32 PM
Waning Gibbous, 55% visible
METAR VTSM 241530Z 00000KT 9000 FEW020 29/25 Q1007
Pressure 29.74 in
Visibility 5.6 miles
Clouds Few 2000 ft
Heat Index 94 °F
Dew Point 77 °F
Humidity 79%
Rainfall 0.00 in
Snow Depth Not available.
6:11 AM 6:32 PM
Waning Gibbous, 55% visible
METAR VTSM 241530Z 00000KT 9000 FEW020 29/25 Q1007

10-Day Weather Forecast

No radar image for this location.
×

Almanac

Astronomy

Aug. 24, 2016 Rise Set
Actual Time
Civil Twilight
Nautical Twilight
Astronomical Twilight
Moon
Length of Visible Light
Length of Day
Tomorrow will be .
, % of the Moon is Illuminated

Today's Extremes

Country Highs Country Lows

Community

WunderPhotos

Upload Photos

1,934,652 photos uploaded!

WunderBlog® & News

Nearby

Air Quality

  Air Quality AQ Index Pollutant
Not available.

Snow Depth

Station Depth Elevation

Earthquake Activity

City Distance Mag. Time & Date
Minimum magnitude displayed is 2.5.

Coastal Water Temperatures

Place Temperature

Stations

Nearby Weather Stations

Station Location Temp. Windchill Dew Point Humidity Wind Precip. Elev Updated Type